Kezdőlap
METAR-TAF:

METAR-TAF

Repülőterek :

Marshfield Municipal Airport

Marshfield, Wisconsin, Amerikai Egyesült Államok

földrajzi szélesség: 44-38-17N, földrajzi hosszúság: 090-11-15W, magasság: 389 m

Jelenlegi meteorológiai megfigyelések

A jelentés 34 perccel ezelõtt készült, 17:54 UTC
Nyugat-északnyugati szél 15 kt széllökések: 21 kt
Hőmérséklet 28°C
Páratartalom 37%
Légköri nyomás 1009 hPa
Látótávolság: 16.1 km
Derült ég

METAR: KMFI 181754Z AUTO 29015G21KT 10SM CLR 28/12 A2980 RMK AO2 SLP085 T02780122 10278 20194 55001

Idő: 13:28 (18:28 UTC)


TAF: hiányzik

Meteorológiai megfigyelések és előrejelzések több, mint 4000 repülőtéren (METAR és TAF jelentéseket).

A térképen piros és sárga pontok jelzik az elérhető meteorológiai állomásokat.

Mozgassa az egeret a pont fölött, hogy megjelenjen az állomás neve.

Azután kattintson az időjárási megfigyelések és előrejelzések megtekintéséhez.

A térkép megváltoztatása: kattintson a fekete keresztel jelölt zöld gombra ráközelítéshez, a vonallal jelölt zöld gombra távolításhoz, vagy a zöld nyilakra a szomszédos térképek eléréséhez.


METAR-TAF: